EGFFEGNX

Guest
Details From EGFF - Cardiff
To EGNX - East Midlands
Flight Number -
Tags generated
Created
Modified
Stats Distance 114 nm / 211 km
Max Altitude 8,200 ft / 2,499 m
Waypoints 3
Social Downloads 1
Likes 0
Share VATSIM

Download

Looking for another format? Having issues loading an existing format? Contact us
Advertisement - Login to hide

Notes

Basic altitude profile: - Ascent Rate: 2500ft/min - Ascent Speed: 250kts - Cruise Altitude: 35000ft - Cruise Speed: 420kts - Descent Rate: 1500ft/min - Descent Speed: 250kts Options: - Use NATs: yes - Use PACOTS: yes - Use low airways: yes - Use high airways: yes

Route

EGFF ERNOK EGNX

ID Type Via Altitude Latitude Longitude Leg Dist Tot Dist Heading (true) Name
O EGFF APT - 0 ft / 0 m 51.39656˚ -3.34320˚ - 0 nm - Cardiff
ERNOK FIX - 8,200 ft / 2,499 m 51.69167˚ -2.94556˚ 23 nm 23 nm 40° / 40° -
O EGNX APT - 0 ft / 0 m 52.83100˚ -1.32815˚ 90 nm 113 nm 40° / 42° East Midlands

Altitude Profile

Advertisement - Login to hide

EGFF

Details ICAO EGFF (CWL)
Name Cardiff
Region United Kingdom
Timezone Europe/London (UTC+1.0)
Stats Elevation 220 ft / 67 m (AMSL)
Location 51.396565° -3.343202°
Runways 1
Magnetic Variation 1.513° W

METAR

EGFF 201550Z AUTO VRB03KT 9999 NCD 21/08 Q1019

Decode

TAF

TAF EGFF 201055Z 2012/2112 14005KT 9999 FEW035 PROB30 2103/2106 7000

Decode

Departure Runways

ID Width Length Bearing (true) Bearing (mag) Surface Threshold Offset Overrun Length
12 131 ft / 40 m 7,831 ft / 2,387 m 116.82° 118.33° Asphalt 715 ft / 218 m 0 ft / 0 m
30 131 ft / 40 m 7,831 ft / 2,387 m 296.84° 298.35° Asphalt 594 ft / 181 m 0 ft / 0 m

EGNX

Details ICAO EGNX (EMA)
Name East Midlands
Region United Kingdom
Timezone Europe/London (UTC+1.0)
Stats Elevation 306 ft / 93 m (AMSL)
Location 52.830999° -1.328155°
Runways 1
Magnetic Variation 0.968° W

METAR

EGNX 201550Z 15009KT CAVOK 21/07 Q1020

Decode

TAF

TAF EGNX 201055Z 2012/2112 16005KT 9999 FEW045 PROB30 2103/2108 5000 BR BKN005

Decode

Destination Runways

ID Width Length Bearing (true) Bearing (mag) Surface Threshold Offset Overrun Length
09 151 ft / 46 m 9,462 ft / 2,884 m 88.25° 89.22° Asphalt 587 ft / 179 m 92 ft / 28 m
27 151 ft / 46 m 9,462 ft / 2,884 m 268.29° 269.26° Asphalt 423 ft / 129 m 98 ft / 30 m

Approach Navaids

Runway Type Ident Frequency Range Bearing (true) Bearing (mag) Slope Elevation
09 Localiser IEMW 109.35 MHz 18 nm / 33 km 88.30° 89.26° - 306 ft / 93 m (AMSL)
09 Glidescope IEMW 109.35 MHz 10 nm / 19 km 88.27° 89.24° 3.00° 306 ft / 93 m (AMSL)
09 DME IEMW 109.35 MHz 18 nm / 33 km - - - 322 ft / 98 m (AMSL)
27 Localiser IEME 109.35 MHz 18 nm / 33 km 268.25° 269.21° - 306 ft / 93 m (AMSL)
27 Glidescope IEME 109.35 MHz 10 nm / 19 km 268.27° 269.24° 3.00° 306 ft / 93 m (AMSL)
27 DME IEME 109.35 MHz 18 nm / 33 km - - - 322 ft / 98 m (AMSL)

Popular Alternatives